sensor_id;sensor_type;location;lat;lon;timestamp;pressure;altitude;pressure_sealevel;temperature;humidity
23229;BME280;11783;50.350;6.576;2023-03-23T00:01:26;95250.19;;;9.36;100.00
23229;BME280;11783;50.350;6.576;2023-03-23T00:03:55;95232.16;;;9.33;100.00
23229;BME280;11783;50.350;6.576;2023-03-23T00:06:26;95248.88;;;9.33;100.00
23229;BME280;11783;50.350;6.576;2023-03-23T00:08:53;95246.72;;;9.30;100.00
23229;BME280;11783;50.350;6.576;2023-03-23T00:11:26;95241.44;;;9.35;100.00
23229;BME280;11783;50.350;6.576;2023-03-23T00:13:55;95251.47;;;9.28;100.00
23229;BME280;11783;50.350;6.576;2023-03-23T00:16:25;95257.91;;;9.37;100.00
23229;BME280;11783;50.350;6.576;2023-03-23T00:19:09;95241.44;;;9.35;100.00
23229;BME280;11783;50.350;6.576;2023-03-23T00:21:35;95225.25;;;9.32;100.00
23229;BME280;11783;50.350;6.576;2023-03-23T00:24:02;95230.53;;;9.27;100.00
23229;BME280;11783;50.350;6.576;2023-03-23T00:26:29;95224.47;;;9.31;100.00
23229;BME280;11783;50.350;6.576;2023-03-23T00:28:59;95232.97;;;9.33;100.00
23229;BME280;11783;50.350;6.576;2023-03-23T00:31:26;95234.28;;;9.31;100.00
23229;BME280;11783;50.350;6.576;2023-03-23T00:33:57;95221.31;;;9.39;100.00
23229;BME280;11783;50.350;6.576;2023-03-23T00:36:23;95217.59;;;9.40;100.00
23229;BME280;11783;50.350;6.576;2023-03-23T00:38:49;95227.13;;;9.41;100.00
23229;BME280;11783;50.350;6.576;2023-03-23T00:41:14;95211.50;;;9.40;100.00
23229;BME280;11783;50.350;6.576;2023-03-23T00:43:40;95217.06;;;9.44;100.00
23229;BME280;11783;50.350;6.576;2023-03-23T00:46:05;95213.59;;;9.33;100.00
23229;BME280;11783;50.350;6.576;2023-03-23T00:48:35;95237.97;;;9.30;100.00
23229;BME280;11783;50.350;6.576;2023-03-23T00:51:02;95200.88;;;9.30;100.00
23229;BME280;11783;50.350;6.576;2023-03-23T00:53:32;95220.22;;;9.35;100.00
23229;BME280;11783;50.350;6.576;2023-03-23T00:55:57;95206.19;;;9.40;100.00
23229;BME280;11783;50.350;6.576;2023-03-23T00:58:22;95207.78;;;9.36;100.00
23229;BME280;11783;50.350;6.576;2023-03-23T01:00:48;95218.59;;;9.29;100.00
23229;BME280;11783;50.350;6.576;2023-03-23T01:03:13;95202.41;;;9.21;100.00
23229;BME280;11783;50.350;6.576;2023-03-23T01:05:44;95214.88;;;9.25;100.00
23229;BME280;11783;50.350;6.576;2023-03-23T01:08:12;95206.13;;;9.25;100.00
23229;BME280;11783;50.350;6.576;2023-03-23T01:10:38;95202.38;;;9.16;100.00
23229;BME280;11783;50.350;6.576;2023-03-23T01:13:05;95191.00;;;9.20;100.00
23229;BME280;11783;50.350;6.576;2023-03-23T01:15:31;95189.41;;;9.19;100.00
23229;BME280;11783;50.350;6.576;2023-03-23T01:17:57;95184.63;;;9.21;100.00
23229;BME280;11783;50.350;6.576;2023-03-23T01:20:23;95177.47;;;9.22;100.00
23229;BME280;11783;50.350;6.576;2023-03-23T01:22:49;95168.47;;;9.23;100.00
23229;BME280;11783;50.350;6.576;2023-03-23T01:25:15;95165.03;;;9.22;100.00
23229;BME280;11783;50.350;6.576;2023-03-23T01:27:41;95187.81;;;9.18;100.00
23229;BME280;11783;50.350;6.576;2023-03-23T01:30:10;95186.50;;;9.21;100.00
23229;BME280;11783;50.350;6.576;2023-03-23T01:32:37;95183.31;;;9.19;100.00
23229;BME280;11783;50.350;6.576;2023-03-23T01:35:02;95186.44;;;9.10;100.00
23229;BME280;11783;50.350;6.576;2023-03-23T01:37:28;95186.16;;;9.07;100.00
23229;BME280;11783;50.350;6.576;2023-03-23T01:39:55;95176.38;;;9.07;100.00
23229;BME280;11783;50.350;6.576;2023-03-23T01:42:22;95168.94;;;9.04;100.00
23229;BME280;11783;50.350;6.576;2023-03-23T01:47:13;95185.66;;;9.10;100.00
23229;BME280;11783;50.350;6.576;2023-03-23T01:49:43;95196.03;;;9.17;100.00
23229;BME280;11783;50.350;6.576;2023-03-23T01:52:16;95194.97;;;9.13;100.00
23229;BME280;11783;50.350;6.576;2023-03-23T01:54:48;95194.97;;;9.13;100.00
23229;BME280;11783;50.350;6.576;2023-03-23T01:57:18;95194.19;;;9.17;100.00
23229;BME280;11783;50.350;6.576;2023-03-23T01:59:49;95191.78;;;9.16;100.00
23229;BME280;11783;50.350;6.576;2023-03-23T02:02:16;95188.59;;;9.14;100.00
23229;BME280;11783;50.350;6.576;2023-03-23T02:04:42;95175.03;;;9.10;100.00
23229;BME280;11783;50.350;6.576;2023-03-23T02:07:09;95171.38;;;9.16;100.00
23229;BME280;11783;50.350;6.576;2023-03-23T02:09:35;95161.56;;;9.12;100.00
23229;BME280;11783;50.350;6.576;2023-03-23T02:12:00;95151.50;;;9.14;100.00
23229;BME280;11783;50.350;6.576;2023-03-23T02:14:27;95156.75;;;9.08;100.00
23229;BME280;11783;50.350;6.576;2023-03-23T02:17:05;95167.59;;;9.02;100.00
23229;BME280;11783;50.350;6.576;2023-03-23T02:19:55;95154.63;;;9.05;100.00
23229;BME280;11783;50.350;6.576;2023-03-23T02:36:25;95178.94;;;8.92;100.00
23229;BME280;11783;50.350;6.576;2023-03-23T02:39:03;95164.31;;;8.74;100.00
23229;BME280;11783;50.350;6.576;2023-03-23T02:41:36;95153.75;;;8.85;100.00
23229;BME280;11783;50.350;6.576;2023-03-23T02:44:04;95159.31;;;8.88;100.00
23229;BME280;11783;50.350;6.576;2023-03-23T02:46:31;95157.19;;;8.85;100.00
23229;BME280;11783;50.350;6.576;2023-03-23T02:48:58;95156.72;;;8.93;100.00
23229;BME280;11783;50.350;6.576;2023-03-23T02:51:25;95157.53;;;8.99;100.00
23229;BME280;11783;50.350;6.576;2023-03-23T02:53:53;95160.16;;;8.99;100.00
23229;BME280;11783;50.350;6.576;2023-03-23T02:56:23;95142.66;;;8.93;100.00
23229;BME280;11783;50.350;6.576;2023-03-23T02:58:50;95143.38;;;8.78;100.00
23229;BME280;11783;50.350;6.576;2023-03-23T03:04:14;95130.69;;;8.85;100.00
23229;BME280;11783;50.350;6.576;2023-03-23T03:09:33;95095.47;;;8.85;100.00
23229;BME280;11783;50.350;6.576;2023-03-23T03:12:09;95095.47;;;8.85;100.00
23229;BME280;11783;50.350;6.576;2023-03-23T03:14:51;95099.22;;;8.94;100.00
23229;BME280;11783;50.350;6.576;2023-03-23T03:17:24;95104.25;;;8.95;100.00
23229;BME280;11783;50.350;6.576;2023-03-23T03:19:59;95108.72;;;8.90;100.00
23229;BME280;11783;50.350;6.576;2023-03-23T03:22:32;95119.63;;;8.93;100.00
23229;BME280;11783;50.350;6.576;2023-03-23T03:25:00;95119.06;;;8.91;100.00
23229;BME280;11783;50.350;6.576;2023-03-23T03:27:26;95111.09;;;8.86;100.00
23229;BME280;11783;50.350;6.576;2023-03-23T03:29:55;95125.94;;;8.92;100.00
23229;BME280;11783;50.350;6.576;2023-03-23T03:32:28;95117.47;;;8.90;100.00
23229;BME280;11783;50.350;6.576;2023-03-23T03:34:58;95126.47;;;8.89;100.00
23229;BME280;11783;50.350;6.576;2023-03-23T03:37:24;95145.25;;;8.83;100.00
23229;BME280;11783;50.350;6.576;2023-03-23T03:39:50;95138.38;;;8.82;100.00
23229;BME280;11783;50.350;6.576;2023-03-23T03:42:16;95127.50;;;8.83;100.00
23229;BME280;11783;50.350;6.576;2023-03-23T03:44:41;95125.16;;;8.92;100.00
23229;BME280;11783;50.350;6.576;2023-03-23T03:47:07;95107.91;;;8.84;100.00
23229;BME280;11783;50.350;6.576;2023-03-23T03:49:32;95084.06;;;8.79;100.00
23229;BME280;11783;50.350;6.576;2023-03-23T03:51:57;95070.56;;;8.86;100.00
23229;BME280;11783;50.350;6.576;2023-03-23T03:54:23;95069.75;;;8.90;100.00
23229;BME280;11783;50.350;6.576;2023-03-23T03:56:48;95086.75;;;8.94;100.00
23229;BME280;11783;50.350;6.576;2023-03-23T03:59:16;95080.09;;;8.92;100.00
23229;BME280;11783;50.350;6.576;2023-03-23T04:01:42;95084.38;;;8.93;100.00
23229;BME280;11783;50.350;6.576;2023-03-23T04:04:07;95089.16;;;9.01;100.00
23229;BME280;11783;50.350;6.576;2023-03-23T04:06:33;95083.06;;;8.95;100.00
23229;BME280;11783;50.350;6.576;2023-03-23T04:09:04;95080.88;;;8.87;100.00
23229;BME280;11783;50.350;6.576;2023-03-23T04:11:32;95097.63;;;8.98;100.00
23229;BME280;11783;50.350;6.576;2023-03-23T04:13:57;95096.03;;;9.02;100.00
23229;BME280;11783;50.350;6.576;2023-03-23T04:16:23;95104.00;;;9.02;100.00
23229;BME280;11783;50.350;6.576;2023-03-23T04:18:49;95107.72;;;9.06;100.00
23229;BME280;11783;50.350;6.576;2023-03-23T04:21:15;95116.47;;;9.06;100.00
23229;BME280;11783;50.350;6.576;2023-03-23T04:23:41;95121.53;;;9.13;100.00
23229;BME280;11783;50.350;6.576;2023-03-23T04:26:07;95123.13;;;9.14;100.00
23229;BME280;11783;50.350;6.576;2023-03-23T04:28:32;95129.44;;;9.08;100.00
23229;BME280;11783;50.350;6.576;2023-03-23T04:30:59;95120.44;;;9.09;100.00
23229;BME280;11783;50.350;6.576;2023-03-23T04:33:26;95127.66;;;9.19;100.00
23229;BME280;11783;50.350;6.576;2023-03-23T04:35:53;95128.69;;;9.13;100.00
23229;BME280;11783;50.350;6.576;2023-03-23T04:38:19;95141.09;;;9.02;100.00
23229;BME280;11783;50.350;6.576;2023-03-23T04:40:47;95154.91;;;9.09;100.00
23229;BME280;11783;50.350;6.576;2023-03-23T04:43:13;95160.47;;;9.07;100.00
23229;BME280;11783;50.350;6.576;2023-03-23T04:45:40;95163.66;;;9.09;100.00
23229;BME280;11783;50.350;6.576;2023-03-23T04:48:07;95171.38;;;9.11;100.00
23229;BME280;11783;50.350;6.576;2023-03-23T04:50:33;95161.78;;;9.10;100.00
23229;BME280;11783;50.350;6.576;2023-03-23T04:53:00;95147.53;;;9.16;100.00
23229;BME280;11783;50.350;6.576;2023-03-23T04:55:34;95151.19;;;9.10;100.00
23229;BME280;11783;50.350;6.576;2023-03-23T04:58:07;95153.28;;;9.03;100.00
23229;BME280;11783;50.350;6.576;2023-03-23T05:00:33;95152.22;;;8.99;100.00
23229;BME280;11783;50.350;6.576;2023-03-23T05:02:59;95148.00;;;9.03;100.00
23229;BME280;11783;50.350;6.576;2023-03-23T05:05:26;95150.09;;;9.01;100.00
23229;BME280;11783;50.350;6.576;2023-03-23T05:07:54;95146.94;;;9.04;100.00
23229;BME280;11783;50.350;6.576;2023-03-23T05:10:20;95140.56;;;9.05;100.00
23229;BME280;11783;50.350;6.576;2023-03-23T05:12:45;95136.91;;;9.11;100.00
23229;BME280;11783;50.350;6.576;2023-03-23T05:15:12;95143.53;;;9.14;100.00
23229;BME280;11783;50.350;6.576;2023-03-23T05:17:37;95156.53;;;9.20;100.00
23229;BME280;11783;50.350;6.576;2023-03-23T05:20:05;95157.28;;;9.10;100.00
23229;BME280;11783;50.350;6.576;2023-03-23T05:22:36;95166.28;;;9.09;100.00
23229;BME280;11783;50.350;6.576;2023-03-23T05:25:02;95167.41;;;9.14;100.00
23229;BME280;11783;50.350;6.576;2023-03-23T05:27:28;95155.16;;;9.02;100.00
23229;BME280;11783;50.350;6.576;2023-03-23T05:29:56;95150.38;;;9.09;100.00
23229;BME280;11783;50.350;6.576;2023-03-23T05:32:25;95149.06;;;9.07;100.00
23229;BME280;11783;50.350;6.576;2023-03-23T05:34:58;95137.94;;;9.10;100.00
23229;BME280;11783;50.350;6.576;2023-03-23T05:37:25;95134.75;;;9.08;100.00
23229;BME280;11783;50.350;6.576;2023-03-23T05:39:52;95145.13;;;9.15;100.00
23229;BME280;11783;50.350;6.576;2023-03-23T05:42:23;95155.19;;;9.13;100.00
23229;BME280;11783;50.350;6.576;2023-03-23T05:44:49;95141.16;;;9.12;100.00
23229;BME280;11783;50.350;6.576;2023-03-23T05:47:15;95148.53;;;9.10;100.00
23229;BME280;11783;50.350;6.576;2023-03-23T05:49:41;95143.28;;;9.15;100.00
23229;BME280;11783;50.350;6.576;2023-03-23T05:52:07;95165.16;;;8.90;100.00
23229;BME280;11783;50.350;6.576;2023-03-23T05:54:32;95150.38;;;8.99;100.00
23229;BME280;11783;50.350;6.576;2023-03-23T05:56:59;95148.25;;;9.01;100.00
23229;BME280;11783;50.350;6.576;2023-03-23T05:59:24;95146.41;;;9.02;100.00
23229;BME280;11783;50.350;6.576;2023-03-23T06:01:51;95160.44;;;8.97;100.00
23229;BME280;11783;50.350;6.576;2023-03-23T06:04:16;95166.81;;;9.01;100.00
23229;BME280;11783;50.350;6.576;2023-03-23T06:06:42;95156.22;;;9.06;100.00
23229;BME280;11783;50.350;6.576;2023-03-23T06:09:09;95162.00;;;8.93;100.00
23229;BME280;11783;50.350;6.576;2023-03-23T06:11:35;95169.66;;;8.90;100.00
23229;BME280;11783;50.350;6.576;2023-03-23T06:14:00;95163.59;;;8.94;100.00
23229;BME280;11783;50.350;6.576;2023-03-23T06:16:26;95166.28;;;8.99;100.00
23229;BME280;11783;50.350;6.576;2023-03-23T06:18:51;95175.56;;;9.07;100.00
23229;BME280;11783;50.350;6.576;2023-03-23T06:21:16;95182.47;;;9.08;100.00
23229;BME280;11783;50.350;6.576;2023-03-23T06:23:47;95178.47;;;9.05;100.00
23229;BME280;11783;50.350;6.576;2023-03-23T06:26:14;95167.34;;;9.03;100.00
23229;BME280;11783;50.350;6.576;2023-03-23T06:28:41;95175.31;;;9.08;100.00
23229;BME280;11783;50.350;6.576;2023-03-23T06:31:07;95168.94;;;9.04;100.00
23229;BME280;11783;50.350;6.576;2023-03-23T06:33:34;95179.53;;;9.04;100.00
23229;BME280;11783;50.350;6.576;2023-03-23T06:35:59;95191.50;;;9.12;100.00
23229;BME280;11783;50.350;6.576;2023-03-23T06:38:25;95198.09;;;9.04;100.00
23229;BME280;11783;50.350;6.576;2023-03-23T06:40:52;95205.81;;;9.11;100.00
23229;BME280;11783;50.350;6.576;2023-03-23T06:43:18;95183.84;;;9.16;100.00
23229;BME280;11783;50.350;6.576;2023-03-23T06:45:43;95219.31;;;9.09;100.00
23229;BME280;11783;50.350;6.576;2023-03-23T06:48:08;95204.25;;;9.15;100.00
23229;BME280;11783;50.350;6.576;2023-03-23T06:50:34;95207.69;;;9.16;100.00
23229;BME280;11783;50.350;6.576;2023-03-23T06:52:59;95206.63;;;9.17;100.00
23229;BME280;11783;50.350;6.576;2023-03-23T06:55:25;95200.81;;;9.25;100.00
23229;BME280;11783;50.350;6.576;2023-03-23T06:57:50;95218.38;;;9.31;100.00
23229;BME280;11783;50.350;6.576;2023-03-23T07:00:16;95216.25;;;9.33;100.00
23229;BME280;11783;50.350;6.576;2023-03-23T07:02:42;95227.38;;;9.30;100.00
23229;BME280;11783;50.350;6.576;2023-03-23T07:05:09;95227.06;;;9.26;100.00
23229;BME280;11783;50.350;6.576;2023-03-23T07:07:36;95232.09;;;9.23;100.00
23229;BME280;11783;50.350;6.576;2023-03-23T07:10:03;95222.56;;;9.27;100.00
23229;BME280;11783;50.350;6.576;2023-03-23T07:12:29;95217.31;;;9.32;100.00
23229;BME280;11783;50.350;6.576;2023-03-23T07:14:54;95213.59;;;9.38;100.00
23229;BME280;11783;50.350;6.576;2023-03-23T07:17:20;95218.41;;;9.46;100.00
23229;BME280;11783;50.350;6.576;2023-03-23T07:19:46;95223.22;;;9.49;100.00
23229;BME280;11783;50.350;6.576;2023-03-23T07:22:11;95223.75;;;9.51;100.00
23229;BME280;11783;50.350;6.576;2023-03-23T07:24:36;95218.72;;;9.55;100.00
23229;BME280;11783;50.350;6.576;2023-03-23T07:27:02;95231.72;;;9.56;100.00
23229;BME280;11783;50.350;6.576;2023-03-23T07:29:28;95230.31;;;9.38;100.00
23229;BME280;11783;50.350;6.576;2023-03-23T07:31:53;95224.75;;;9.45;100.00
23229;BME280;11783;50.350;6.576;2023-03-23T07:34:19;95227.44;;;9.50;100.00
23229;BME280;11783;50.350;6.576;2023-03-23T07:36:45;95227.44;;;9.50;100.00
23229;BME280;11783;50.350;6.576;2023-03-23T07:39:11;95228.53;;;9.54;100.00
23229;BME280;11783;50.350;6.576;2023-03-23T07:41:37;95232.78;;;9.60;100.00
23229;BME280;11783;50.350;6.576;2023-03-23T07:44:02;95234.91;;;9.63;100.00
23229;BME280;11783;50.350;6.576;2023-03-23T07:46:28;95214.22;;;9.65;100.00
23229;BME280;11783;50.350;6.576;2023-03-23T07:48:53;95225.38;;;9.67;100.00
23229;BME280;11783;50.350;6.576;2023-03-23T07:51:19;95231.72;;;9.66;100.00
23229;BME280;11783;50.350;6.576;2023-03-23T07:53:44;95219.50;;;9.65;100.00
23229;BME280;11783;50.350;6.576;2023-03-23T07:56:11;95216.06;;;9.60;100.00
23229;BME280;11783;50.350;6.576;2023-03-23T07:58:37;95227.47;;;9.60;100.00
23229;BME280;11783;50.350;6.576;2023-03-23T08:01:03;95241.00;;;9.59;100.00
23229;BME280;11783;50.350;6.576;2023-03-23T08:03:28;95235.16;;;9.62;100.00
23229;BME280;11783;50.350;6.576;2023-03-23T08:05:57;95242.06;;;9.63;100.00
23229;BME280;11783;50.350;6.576;2023-03-23T08:08:24;95244.72;;;9.58;100.00
23229;BME280;11783;50.350;6.576;2023-03-23T08:10:49;95247.38;;;9.63;100.00
23229;BME280;11783;50.350;6.576;2023-03-23T08:13:15;95240.47;;;9.62;100.00
23229;BME280;11783;50.350;6.576;2023-03-23T08:15:41;95249.50;;;9.66;100.00
23229;BME280;11783;50.350;6.576;2023-03-23T08:18:08;95248.75;;;9.70;100.00
23229;BME280;11783;50.350;6.576;2023-03-23T08:20:34;95254.03;;;9.70;100.00
23229;BME280;11783;50.350;6.576;2023-03-23T08:23:00;95263.03;;;9.64;100.00
23229;BME280;11783;50.350;6.576;2023-03-23T08:25:28;95267.78;;;9.62;100.00
23229;BME280;11783;50.350;6.576;2023-03-23T08:27:56;95247.63;;;9.61;100.00
23229;BME280;11783;50.350;6.576;2023-03-23T08:30:22;95263.56;;;9.61;100.00
23229;BME280;11783;50.350;6.576;2023-03-23T08:32:48;95283.72;;;9.62;100.00
23229;BME280;11783;50.350;6.576;2023-03-23T08:35:15;95262.50;;;9.62;100.00
23229;BME280;11783;50.350;6.576;2023-03-23T08:37:41;95252.94;;;9.66;100.00
23229;BME280;11783;50.350;6.576;2023-03-23T08:40:08;95255.59;;;9.61;100.00
23229;BME280;11783;50.350;6.576;2023-03-23T08:42:38;95267.25;;;9.55;100.00
23229;BME280;11783;50.350;6.576;2023-03-23T08:45:06;95274.41;;;9.60;100.00
23229;BME280;11783;50.350;6.576;2023-03-23T08:47:33;95267.00;;;9.62;100.00
23229;BME280;11783;50.350;6.576;2023-03-23T08:49:58;95275.22;;;9.60;100.00
23229;BME280;11783;50.350;6.576;2023-03-23T08:52:24;95271.22;;;9.53;100.00
23229;BME280;11783;50.350;6.576;2023-03-23T08:54:49;95277.06;;;9.60;100.00
23229;BME280;11783;50.350;6.576;2023-03-23T08:57:15;95272.34;;;9.67;100.00
23229;BME280;11783;50.350;6.576;2023-03-23T08:59:41;95270.97;;;9.64;100.00
23229;BME280;11783;50.350;6.576;2023-03-23T09:02:10;95276.53;;;9.58;100.00
23229;BME280;11783;50.350;6.576;2023-03-23T09:04:39;95275.47;;;9.59;100.00
23229;BME280;11783;50.350;6.576;2023-03-23T09:07:08;95302.81;;;9.64;100.00
23229;BME280;11783;50.350;6.576;2023-03-23T09:09:34;95284.69;;;9.46;100.00
23229;BME280;11783;50.350;6.576;2023-03-23T09:12:00;95276.00;;;9.51;100.00
23229;BME280;11783;50.350;6.576;2023-03-23T09:14:26;95285.22;;;9.48;100.00
23229;BME280;11783;50.350;6.576;2023-03-23T09:16:52;95299.03;;;9.45;100.00
23229;BME280;11783;50.350;6.576;2023-03-23T09:19:18;95299.53;;;9.42;100.00
23229;BME280;11783;50.350;6.576;2023-03-23T09:21:43;95302.97;;;9.37;100.00
23229;BME280;11783;50.350;6.576;2023-03-23T09:24:10;95292.66;;;9.46;100.00
23229;BME280;11783;50.350;6.576;2023-03-23T09:26:36;95278.66;;;9.51;100.00
23229;BME280;11783;50.350;6.576;2023-03-23T09:29:02;95271.75;;;9.55;100.00
23229;BME280;11783;50.350;6.576;2023-03-23T09:31:27;95272.53;;;9.50;100.00
23229;BME280;11783;50.350;6.576;2023-03-23T09:33:54;95284.75;;;9.56;100.00
23229;BME280;11783;50.350;6.576;2023-03-23T09:36:22;95285.81;;;9.60;100.00
23229;BME280;11783;50.350;6.576;2023-03-23T09:38:48;95290.59;;;9.58;100.00
23229;BME280;11783;50.350;6.576;2023-03-23T09:44:09;95292.50;;;9.68;100.00
23229;BME280;11783;50.350;6.576;2023-03-23T09:49:38;95296.72;;;9.64;100.00
23229;BME280;11783;50.350;6.576;2023-03-23T09:52:14;95300.75;;;9.71;100.00
23229;BME280;11783;50.350;6.576;2023-03-23T09:54:43;95312.44;;;9.76;100.00
23229;BME280;11783;50.350;6.576;2023-03-23T09:57:34;95298.34;;;9.75;100.00
23229;BME280;11783;50.350;6.576;2023-03-23T10:03:00;95304.13;;;9.62;100.00
23229;BME280;11783;50.350;6.576;2023-03-23T10:05:37;95297.47;;;9.49;100.00
23229;BME280;11783;50.350;6.576;2023-03-23T10:08:20;95307.59;;;9.62;100.00
23229;BME280;11783;50.350;6.576;2023-03-23T10:14:02;95315.88;;;9.71;100.00
23229;BME280;11783;50.350;6.576;2023-03-23T10:16:36;95319.03;;;9.68;100.00
23229;BME280;11783;50.350;6.576;2023-03-23T10:19:09;95326.41;;;9.56;100.00
23229;BME280;11783;50.350;6.576;2023-03-23T10:21:39;95334.09;;;9.52;100.00
23229;BME280;11783;50.350;6.576;2023-03-23T10:24:10;95334.63;;;9.59;100.00
23229;BME280;11783;50.350;6.576;2023-03-23T10:29:33;95342.56;;;9.49;100.00
23229;BME280;11783;50.350;6.576;2023-03-23T10:32:17;95328.34;;;9.70;100.00
23229;BME280;11783;50.350;6.576;2023-03-23T10:34:52;95328.59;;;9.74;100.00
23229;BME280;11783;50.350;6.576;2023-03-23T10:37:26;95331.28;;;9.84;100.00
23229;BME280;11783;50.350;6.576;2023-03-23T10:39:55;95316.47;;;9.93;100.00
23229;BME280;11783;50.350;6.576;2023-03-23T10:42:28;95341.16;;;9.94;100.00
23229;BME280;11783;50.350;6.576;2023-03-23T10:44:56;95325.81;;;10.06;100.00
23229;BME280;11783;50.350;6.576;2023-03-23T10:47:23;95326.84;;;10.00;100.00
23229;BME280;11783;50.350;6.576;2023-03-23T10:49:55;95322.34;;;10.11;100.00
23229;BME280;11783;50.350;6.576;2023-03-23T10:52:35;95327.41;;;10.07;100.00
23229;BME280;11783;50.350;6.576;2023-03-23T10:57:33;95341.47;;;10.13;100.00
23229;BME280;11783;50.350;6.576;2023-03-23T11:00:15;95339.09;;;10.11;100.00
23229;BME280;11783;50.350;6.576;2023-03-23T11:02:47;95338.28;;;10.11;100.00
23229;BME280;11783;50.350;6.576;2023-03-23T11:05:17;95331.16;;;10.21;100.00
23229;BME280;11783;50.350;6.576;2023-03-23T11:07:50;95343.94;;;10.24;100.00
23229;BME280;11783;50.350;6.576;2023-03-23T11:10:42;95324.28;;;10.25;100.00
23229;BME280;11783;50.350;6.576;2023-03-23T11:13:12;95326.41;;;10.34;100.00
23229;BME280;11783;50.350;6.576;2023-03-23T11:15:40;95324.59;;;10.44;100.00
23229;BME280;11783;50.350;6.576;2023-03-23T11:18:20;95324.28;;;10.41;100.00
23229;BME280;11783;50.350;6.576;2023-03-23T11:20:49;95330.16;;;10.53;100.00
23229;BME280;11783;50.350;6.576;2023-03-23T11:23:23;95328.03;;;10.55;100.00
23229;BME280;11783;50.350;6.576;2023-03-23T11:25:58;95332.31;;;10.61;100.00
23229;BME280;11783;50.350;6.576;2023-03-23T11:28:32;95329.13;;;10.64;100.00
23229;BME280;11783;50.350;6.576;2023-03-23T11:30:59;95328.06;;;10.65;100.00
23229;BME280;11783;50.350;6.576;2023-03-23T11:33:35;95326.47;;;10.74;100.00
23229;BME280;11783;50.350;6.576;2023-03-23T11:36:02;95319.53;;;10.73;100.00
23229;BME280;11783;50.350;6.576;2023-03-23T11:38:27;95314.78;;;10.60;100.00
23229;BME280;11783;50.350;6.576;2023-03-23T11:40:53;95307.88;;;10.69;100.00
23229;BME280;11783;50.350;6.576;2023-03-23T11:43:24;95299.88;;;10.69;100.00
23229;BME280;11783;50.350;6.576;2023-03-23T11:46:02;95300.94;;;10.68;100.00
23229;BME280;11783;50.350;6.576;2023-03-23T11:49:22;95299.88;;;10.74;100.00
23229;BME280;11783;50.350;6.576;2023-03-23T11:51:44;95296.19;;;10.80;100.00
23229;BME280;11783;50.350;6.576;2023-03-23T11:54:30;95318.50;;;10.84;100.00
23229;BME280;11783;50.350;6.576;2023-03-23T11:56:56;95307.06;;;10.89;100.00
23229;BME280;11783;50.350;6.576;2023-03-23T11:59:31;95302.53;;;10.84;100.00
23229;BME280;11783;50.350;6.576;2023-03-23T12:02:16;95311.56;;;10.78;100.00
23229;BME280;11783;50.350;6.576;2023-03-23T12:05:24;95311.59;;;10.83;100.00
23229;BME280;11783;50.350;6.576;2023-03-23T12:08:32;95302.81;;;10.98;100.00
23229;BME280;11783;50.350;6.576;2023-03-23T12:11:08;95311.28;;;11.10;100.00
23229;BME280;11783;50.350;6.576;2023-03-23T12:16:22;95317.66;;;11.19;100.00
23229;BME280;11783;50.350;6.576;2023-03-23T12:18:54;95304.63;;;11.18;100.00
23229;BME280;11783;50.350;6.576;2023-03-23T12:21:35;95318.19;;;11.21;100.00
23229;BME280;11783;50.350;6.576;2023-03-23T12:24:41;95314.72;;;11.26;100.00
23229;BME280;11783;50.350;6.576;2023-03-23T12:27:32;95323.25;;;11.18;100.00
23229;BME280;11783;50.350;6.576;2023-03-23T12:30:11;95322.19;;;11.19;98.94
23229;BME280;11783;50.350;6.576;2023-03-23T12:42:59;95321.66;;;10.91;98.95
23229;BME280;11783;50.350;6.576;2023-03-23T12:48:22;95302.50;;;11.10;100.00
23229;BME280;11783;50.350;6.576;2023-03-23T12:51:12;95304.91;;;11.16;100.00
23229;BME280;11783;50.350;6.576;2023-03-23T12:53:55;95306.19;;;11.29;98.38
23229;BME280;11783;50.350;6.576;2023-03-23T12:56:36;95302.19;;;11.32;99.81
23229;BME280;11783;50.350;6.576;2023-03-23T12:59:20;95297.69;;;11.27;98.95
23229;BME280;11783;50.350;6.576;2023-03-23T13:01:51;95317.09;;;11.38;100.00
23229;BME280;11783;50.350;6.576;2023-03-23T13:04:21;95314.66;;;11.46;99.48
23229;BME280;11783;50.350;6.576;2023-03-23T13:06:48;95310.41;;;11.56;98.63
23229;BME280;11783;50.350;6.576;2023-03-23T13:09:20;95312.03;;;11.41;96.40
23229;BME280;11783;50.350;6.576;2023-03-23T13:11:50;95304.28;;;11.50;98.25
23229;BME280;11783;50.350;6.576;2023-03-23T13:14:50;95313.53;;;11.68;98.82
23229;BME280;11783;50.350;6.576;2023-03-23T13:22:32;95313.50;;;11.78;96.10
23229;BME280;11783;50.350;6.576;2023-03-23T13:25:06;95301.03;;;11.78;95.38
23229;BME280;11783;50.350;6.576;2023-03-23T13:27:33;95322.06;;;11.80;97.47
23229;BME280;11783;50.350;6.576;2023-03-23T13:30:00;95313.00;;;11.76;96.87
23229;BME280;11783;50.350;6.576;2023-03-23T13:32:35;95310.06;;;11.82;98.39
23229;BME280;11783;50.350;6.576;2023-03-23T13:35:11;95310.84;;;11.83;98.94
23229;BME280;11783;50.350;6.576;2023-03-23T13:37:41;95293.53;;;11.86;98.88
23229;BME280;11783;50.350;6.576;2023-03-23T13:42:52;95299.41;;;11.82;100.00
23229;BME280;11783;50.350;6.576;2023-03-23T13:47:46;95298.72;;;12.16;97.55
23229;BME280;11783;50.350;6.576;2023-03-23T13:50:24;95308.00;;;12.19;97.60
23229;BME280;11783;50.350;6.576;2023-03-23T13:53:14;95312.34;;;12.09;94.63
23229;BME280;11783;50.350;6.576;2023-03-23T13:55:49;95314.44;;;12.12;95.76
23229;BME280;11783;50.350;6.576;2023-03-23T13:58:23;95326.19;;;12.06;94.33
23229;BME280;11783;50.350;6.576;2023-03-23T14:01:01;95304.09;;;12.06;95.54
23229;BME280;11783;50.350;6.576;2023-03-23T14:03:37;95315.28;;;12.03;94.94
23229;BME280;11783;50.350;6.576;2023-03-23T14:06:07;95298.19;;;12.14;95.08
23229;BME280;11783;50.350;6.576;2023-03-23T14:08:42;95293.13;;;12.12;92.57
23229;BME280;11783;50.350;6.576;2023-03-23T14:11:17;95298.50;;;12.02;94.40
23229;BME280;11783;50.350;6.576;2023-03-23T14:16:27;95298.06;;;11.90;95.28
23229;BME280;11783;50.350;6.576;2023-03-23T14:18:58;95293.53;;;11.91;93.54
23229;BME280;11783;50.350;6.576;2023-03-23T14:21:38;95306.56;;;11.87;95.31